Cornelia Maersk — OWWS2 — position and weather

sailwx.info

Track history (hours):
 
Tides and Currents Weather Stations Pressure Air Temp Water Temp Dewpoint Dewpoint Depression Visibility Wind Speed Wind Dir Waves Ship Positions

Cornelia Maersk

Last reported at 2018-May-15 06:39 UTC. Time now 2018-May-27 02:57 UTC.
Position N 34°55' E 129°02'.
Warning: this ship's position is 11 days out of date.

Type: Ship (hazmat cat A). MMSI: 220061000.

Date/timePositionNaut miles runAvg speedWind from/ knotsBaromVisibWave heightAir tempDewpointWater temp
2018-May-15 06:39N 34°55' E 129°02'1111.8
2018-May-15 05:41N 34°58' E 128°48'203 5.5
2018-May-13 16:57N 32°20' E 126°17'2819.8
2018-May-13 15:31N 32°04' E 125°48'920.1
2018-May-13 15:03N 31°59' E 125°39'920.1
2018-May-13 14:38N 31°54' E 125°31'819.9
2018-May-13 14:13N 31°50' E 125°23'419.6
2018-May-13 13:59N 31°47' E 125°18'1020.1
2018-May-13 13:30N 31°42' E 125°09'1020.0
2018-May-13 13:00N 31°37' E 124°59'1119.8
2018-May-13 12:28N 31°31' E 124°49'1019.6
2018-May-13 11:58N 31°25' E 124°39'919.3
2018-May-13 11:29N 31°20' E 124°30'8818.7
2018-May-13 06:47N 30°36' E 123°01'519.3
2018-May-13 06:30N 30°34' E 122°55'1019.6
2018-May-13 06:00N 30°32' E 122°44'1719.9
2018-May-13 05:09N 30°32' E 122°24'615.0
2018-May-13 04:43N 30°33' E 122°17'310.8
2018-May-13 04:28N 30°33' E 122°14'10 0.5
2018-May-12 09:35N 30°37' E 122°04'3 7.4
2018-May-12 09:11N 30°35' E 122°07'414.4
2018-May-12 08:53N 30°34' E 122°11'  
2018-May-07 20:35N 24°02' E 118°46'1621.4
2018-May-07 19:49N 23°52' E 118°33'721.5
2018-May-07 19:29N 23°47' E 118°27'1121.6
2018-May-07 18:58N 23°39' E 118°19'1121.8
2018-May-07 18:29N 23°34' E 118°08'1122.1
2018-May-07 18:00N 23°29' E 117°58'1121.9
2018-May-07 17:30N 23°24' E 117°48'1121.9
2018-May-07 17:00N 23°18' E 117°38'1222.0
2018-May-07 16:26N 23°10' E 117°27'  
Track history (hours):
 
Tides and Currents Weather Stations Pressure Air Temp Water Temp Dewpoint Dewpoint Depression Visibility Wind Speed Wind Dir Waves Ship Positions

Cornelia Maersk

Last reported at 2018-May-15 06:39 UTC. Time now 2018-May-27 02:57 UTC.
Position N 34°55' E 129°02'.
Warning: this ship's position is 11 days out of date.

Type: Ship (hazmat cat A). MMSI: 220061000.

Date/timePositionNaut miles runAvg speedWind from/ knotsBaromVisibWave heightAir tempDewpointWater temp
2018-May-15 06:39N 34°55' E 129°02'1111.8
2018-May-15 05:41N 34°58' E 128°48'203 5.5
2018-May-13 16:57N 32°20' E 126°17'2819.8
2018-May-13 15:31N 32°04' E 125°48'920.1
2018-May-13 15:03N 31°59' E 125°39'920.1
2018-May-13 14:38N 31°54' E 125°31'819.9
2018-May-13 14:13N 31°50' E 125°23'419.6
2018-May-13 13:59N 31°47' E 125°18'1020.1
2018-May-13 13:30N 31°42' E 125°09'1020.0
2018-May-13 13:00N 31°37' E 124°59'1119.8
2018-May-13 12:28N 31°31' E 124°49'1019.6
2018-May-13 11:58N 31°25' E 124°39'919.3
2018-May-13 11:29N 31°20' E 124°30'8818.7
2018-May-13 06:47N 30°36' E 123°01'519.3
2018-May-13 06:30N 30°34' E 122°55'1019.6
2018-May-13 06:00N 30°32' E 122°44'1719.9
2018-May-13 05:09N 30°32' E 122°24'615.0
2018-May-13 04:43N 30°33' E 122°17'310.8
2018-May-13 04:28N 30°33' E 122°14'10 0.5
2018-May-12 09:35N 30°37' E 122°04'3 7.4
2018-May-12 09:11N 30°35' E 122°07'414.4
2018-May-12 08:53N 30°34' E 122°11'  
2018-May-07 20:35N 24°02' E 118°46'1621.4
2018-May-07 19:49N 23°52' E 118°33'721.5
2018-May-07 19:29N 23°47' E 118°27'1121.6
2018-May-07 18:58N 23°39' E 118°19'1121.8
2018-May-07 18:29N 23°34' E 118°08'1122.1
2018-May-07 18:00N 23°29' E 117°58'1121.9
2018-May-07 17:30N 23°24' E 117°48'1121.9
2018-May-07 17:00N 23°18' E 117°38'1222.0
2018-May-07 16:26N 23°10' E 117°27'  

Dump ship's entire track history